sensor_id;sensor_type;location;lat;lon;timestamp;P1;durP1;ratioP1;P2;durP2;ratioP2
76053;SDS011;64752;48.870;9.082;2023-04-30T00:01:38;7.20;;;5.20;;
76053;SDS011;64752;48.870;9.082;2023-04-30T00:04:03;6.82;;;5.18;;
76053;SDS011;64752;48.870;9.082;2023-04-30T00:06:29;8.13;;;5.22;;
76053;SDS011;64752;48.870;9.082;2023-04-30T00:08:55;8.50;;;4.95;;
76053;SDS011;64752;48.870;9.082;2023-04-30T00:11:20;9.60;;;6.00;;
76053;SDS011;64752;48.870;9.082;2023-04-30T00:13:46;6.53;;;5.13;;
76053;SDS011;64752;48.870;9.082;2023-04-30T00:16:11;6.63;;;5.53;;
76053;SDS011;64752;48.870;9.082;2023-04-30T00:18:37;7.72;;;5.78;;
76053;SDS011;64752;48.870;9.082;2023-04-30T00:21:02;8.27;;;5.93;;
76053;SDS011;64752;48.870;9.082;2023-04-30T00:23:28;7.30;;;6.13;;
76053;SDS011;64752;48.870;9.082;2023-04-30T00:25:53;10.63;;;6.72;;
76053;SDS011;64752;48.870;9.082;2023-04-30T00:28:19;9.60;;;6.10;;
76053;SDS011;64752;48.870;9.082;2023-04-30T00:30:44;7.95;;;5.95;;
76053;SDS011;64752;48.870;9.082;2023-04-30T00:33:10;8.30;;;6.13;;
76053;SDS011;64752;48.870;9.082;2023-04-30T00:35:36;8.40;;;5.90;;
76053;SDS011;64752;48.870;9.082;2023-04-30T00:38:01;8.18;;;6.20;;
76053;SDS011;64752;48.870;9.082;2023-04-30T00:40:26;8.73;;;6.80;;
76053;SDS011;64752;48.870;9.082;2023-04-30T00:42:52;9.63;;;6.78;;
76053;SDS011;64752;48.870;9.082;2023-04-30T00:45:19;7.60;;;6.43;;
76053;SDS011;64752;48.870;9.082;2023-04-30T00:47:46;8.52;;;6.60;;
76053;SDS011;64752;48.870;9.082;2023-04-30T00:50:11;8.68;;;6.95;;
76053;SDS011;64752;48.870;9.082;2023-04-30T00:52:40;9.82;;;7.53;;
76053;SDS011;64752;48.870;9.082;2023-04-30T00:55:09;10.75;;;6.63;;
76053;SDS011;64752;48.870;9.082;2023-04-30T00:57:35;9.95;;;7.93;;
76053;SDS011;64752;48.870;9.082;2023-04-30T01:00:03;11.40;;;7.68;;
76053;SDS011;64752;48.870;9.082;2023-04-30T01:02:29;10.63;;;8.02;;
76053;SDS011;64752;48.870;9.082;2023-04-30T01:04:54;9.40;;;7.35;;
76053;SDS011;64752;48.870;9.082;2023-04-30T01:07:20;9.93;;;7.85;;
76053;SDS011;64752;48.870;9.082;2023-04-30T01:09:46;8.82;;;7.10;;
76053;SDS011;64752;48.870;9.082;2023-04-30T01:15:18;11.68;;;8.07;;
76053;SDS011;64752;48.870;9.082;2023-04-30T01:20:14;11.60;;;8.13;;
76053;SDS011;64752;48.870;9.082;2023-04-30T01:28:14;11.50;;;7.95;;
76053;SDS011;64752;48.870;9.082;2023-04-30T01:30:48;11.13;;;8.43;;
76053;SDS011;64752;48.870;9.082;2023-04-30T01:33:14;11.43;;;8.73;;
76053;SDS011;64752;48.870;9.082;2023-04-30T01:45:09;16.27;;;9.40;;
76053;SDS011;64752;48.870;9.082;2023-04-30T01:52:50;11.60;;;8.90;;
76053;SDS011;64752;48.870;9.082;2023-04-30T01:55:22;14.02;;;9.32;;
76053;SDS011;64752;48.870;9.082;2023-04-30T02:00:21;11.77;;;9.57;;
76053;SDS011;64752;48.870;9.082;2023-04-30T02:02:47;18.33;;;10.68;;
76053;SDS011;64752;48.870;9.082;2023-04-30T02:05:12;11.88;;;9.35;;
76053;SDS011;64752;48.870;9.082;2023-04-30T02:10:04;13.57;;;9.98;;
76053;SDS011;64752;48.870;9.082;2023-04-30T02:12:30;12.48;;;9.27;;
76053;SDS011;64752;48.870;9.082;2023-04-30T02:14:55;11.98;;;9.32;;
76053;SDS011;64752;48.870;9.082;2023-04-30T02:17:20;11.88;;;10.15;;
76053;SDS011;64752;48.870;9.082;2023-04-30T02:19:46;14.57;;;10.15;;
76053;SDS011;64752;48.870;9.082;2023-04-30T02:22:11;13.23;;;9.77;;
76053;SDS011;64752;48.870;9.082;2023-04-30T02:24:37;13.48;;;10.23;;
76053;SDS011;64752;48.870;9.082;2023-04-30T02:27:02;12.38;;;10.27;;
76053;SDS011;64752;48.870;9.082;2023-04-30T02:29:27;14.65;;;10.20;;
76053;SDS011;64752;48.870;9.082;2023-04-30T02:31:53;14.25;;;10.52;;
76053;SDS011;64752;48.870;9.082;2023-04-30T02:34:20;13.55;;;10.57;;
76053;SDS011;64752;48.870;9.082;2023-04-30T02:36:45;14.55;;;10.30;;
76053;SDS011;64752;48.870;9.082;2023-04-30T02:39:10;12.10;;;10.48;;
76053;SDS011;64752;48.870;9.082;2023-04-30T02:41:36;14.50;;;10.85;;
76053;SDS011;64752;48.870;9.082;2023-04-30T02:44:01;13.73;;;11.15;;
76053;SDS011;64752;48.870;9.082;2023-04-30T02:46:27;13.75;;;10.13;;
76053;SDS011;64752;48.870;9.082;2023-04-30T02:48:52;13.45;;;11.65;;
76053;SDS011;64752;48.870;9.082;2023-04-30T02:51:17;14.40;;;11.40;;
76053;SDS011;64752;48.870;9.082;2023-04-30T02:53:43;14.20;;;10.57;;
76053;SDS011;64752;48.870;9.082;2023-04-30T02:56:08;13.73;;;11.32;;
76053;SDS011;64752;48.870;9.082;2023-04-30T02:58:33;13.27;;;10.43;;
76053;SDS011;64752;48.870;9.082;2023-04-30T03:00:59;17.38;;;11.27;;
76053;SDS011;64752;48.870;9.082;2023-04-30T03:03:24;12.70;;;10.88;;
76053;SDS011;64752;48.870;9.082;2023-04-30T03:05:49;15.05;;;10.98;;
76053;SDS011;64752;48.870;9.082;2023-04-30T03:08:15;14.55;;;11.63;;
76053;SDS011;64752;48.870;9.082;2023-04-30T03:10:40;14.98;;;11.43;;
76053;SDS011;64752;48.870;9.082;2023-04-30T03:13:05;13.43;;;11.18;;
76053;SDS011;64752;48.870;9.082;2023-04-30T03:15:31;13.20;;;11.75;;
76053;SDS011;64752;48.870;9.082;2023-04-30T03:17:57;14.32;;;11.23;;
76053;SDS011;64752;48.870;9.082;2023-04-30T03:20:22;14.60;;;12.02;;
76053;SDS011;64752;48.870;9.082;2023-04-30T03:22:48;13.60;;;11.30;;
76053;SDS011;64752;48.870;9.082;2023-04-30T03:25:13;14.50;;;11.65;;
76053;SDS011;64752;48.870;9.082;2023-04-30T03:27:39;13.10;;;11.32;;
76053;SDS011;64752;48.870;9.082;2023-04-30T03:30:04;15.13;;;11.93;;
76053;SDS011;64752;48.870;9.082;2023-04-30T03:32:31;16.63;;;11.88;;
76053;SDS011;64752;48.870;9.082;2023-04-30T03:34:56;15.75;;;11.52;;
76053;SDS011;64752;48.870;9.082;2023-04-30T03:37:21;15.10;;;11.10;;
76053;SDS011;64752;48.870;9.082;2023-04-30T03:39:47;13.80;;;11.07;;
76053;SDS011;64752;48.870;9.082;2023-04-30T03:42:12;18.33;;;11.57;;
76053;SDS011;64752;48.870;9.082;2023-04-30T03:44:38;14.05;;;12.55;;
76053;SDS011;64752;48.870;9.082;2023-04-30T03:47:03;14.80;;;12.40;;
76053;SDS011;64752;48.870;9.082;2023-04-30T03:49:28;14.55;;;11.30;;
76053;SDS011;64752;48.870;9.082;2023-04-30T03:51:54;17.17;;;12.27;;
76053;SDS011;64752;48.870;9.082;2023-04-30T03:54:19;13.63;;;11.50;;
76053;SDS011;64752;48.870;9.082;2023-04-30T03:56:45;13.90;;;11.48;;
76053;SDS011;64752;48.870;9.082;2023-04-30T03:59:10;13.60;;;12.02;;
76053;SDS011;64752;48.870;9.082;2023-04-30T04:01:36;15.90;;;12.30;;
76053;SDS011;64752;48.870;9.082;2023-04-30T04:04:01;16.17;;;12.52;;
76053;SDS011;64752;48.870;9.082;2023-04-30T04:06:27;15.20;;;12.82;;
76053;SDS011;64752;48.870;9.082;2023-04-30T04:08:52;15.20;;;11.85;;
76053;SDS011;64752;48.870;9.082;2023-04-30T04:11:18;17.25;;;12.52;;
76053;SDS011;64752;48.870;9.082;2023-04-30T04:13:43;15.35;;;12.32;;
76053;SDS011;64752;48.870;9.082;2023-04-30T04:16:08;15.40;;;12.52;;
76053;SDS011;64752;48.870;9.082;2023-04-30T04:18:34;22.25;;;11.63;;
76053;SDS011;64752;48.870;9.082;2023-04-30T04:21:00;16.30;;;13.13;;
76053;SDS011;64752;48.870;9.082;2023-04-30T04:23:25;16.10;;;12.02;;
76053;SDS011;64752;48.870;9.082;2023-04-30T04:25:51;16.35;;;12.30;;
76053;SDS011;64752;48.870;9.082;2023-04-30T04:28:17;17.42;;;12.90;;
76053;SDS011;64752;48.870;9.082;2023-04-30T04:30:42;13.93;;;11.75;;
76053;SDS011;64752;48.870;9.082;2023-04-30T04:33:08;15.02;;;12.98;;
76053;SDS011;64752;48.870;9.082;2023-04-30T04:35:34;15.30;;;12.45;;
76053;SDS011;64752;48.870;9.082;2023-04-30T04:38:00;16.67;;;12.27;;
76053;SDS011;64752;48.870;9.082;2023-04-30T04:40:25;17.55;;;12.70;;
76053;SDS011;64752;48.870;9.082;2023-04-30T04:42:51;15.57;;;12.57;;
76053;SDS011;64752;48.870;9.082;2023-04-30T04:45:16;17.10;;;13.23;;
76053;SDS011;64752;48.870;9.082;2023-04-30T04:47:43;16.15;;;13.07;;
76053;SDS011;64752;48.870;9.082;2023-04-30T04:50:08;17.75;;;13.30;;
76053;SDS011;64752;48.870;9.082;2023-04-30T04:52:34;14.52;;;12.40;;
76053;SDS011;64752;48.870;9.082;2023-04-30T04:55:00;17.33;;;13.05;;
76053;SDS011;64752;48.870;9.082;2023-04-30T04:57:25;14.98;;;12.63;;
76053;SDS011;64752;48.870;9.082;2023-04-30T04:59:50;15.23;;;12.07;;
76053;SDS011;64752;48.870;9.082;2023-04-30T05:02:16;16.75;;;12.95;;
76053;SDS011;64752;48.870;9.082;2023-04-30T05:04:41;15.85;;;11.23;;
76053;SDS011;64752;48.870;9.082;2023-04-30T05:07:06;16.23;;;11.68;;
76053;SDS011;64752;48.870;9.082;2023-04-30T05:09:32;15.30;;;12.10;;
76053;SDS011;64752;48.870;9.082;2023-04-30T05:11:57;14.60;;;12.48;;
76053;SDS011;64752;48.870;9.082;2023-04-30T05:14:23;16.75;;;13.48;;
76053;SDS011;64752;48.870;9.082;2023-04-30T05:16:48;16.30;;;13.05;;
76053;SDS011;64752;48.870;9.082;2023-04-30T05:19:13;17.85;;;12.52;;
76053;SDS011;64752;48.870;9.082;2023-04-30T05:21:39;17.23;;;13.60;;
76053;SDS011;64752;48.870;9.082;2023-04-30T05:24:04;15.60;;;12.52;;
76053;SDS011;64752;48.870;9.082;2023-04-30T05:26:30;15.25;;;12.32;;
76053;SDS011;64752;48.870;9.082;2023-04-30T05:28:55;14.77;;;11.47;;
76053;SDS011;64752;48.870;9.082;2023-04-30T05:31:21;14.88;;;11.48;;
76053;SDS011;64752;48.870;9.082;2023-04-30T05:33:46;18.50;;;12.03;;
76053;SDS011;64752;48.870;9.082;2023-04-30T05:36:13;15.60;;;11.05;;
76053;SDS011;64752;48.870;9.082;2023-04-30T05:38:38;15.38;;;11.35;;
76053;SDS011;64752;48.870;9.082;2023-04-30T05:41:04;13.40;;;11.45;;
76053;SDS011;64752;48.870;9.082;2023-04-30T05:43:29;12.50;;;10.43;;
76053;SDS011;64752;48.870;9.082;2023-04-30T05:45:55;16.23;;;11.30;;
76053;SDS011;64752;48.870;9.082;2023-04-30T05:48:20;13.10;;;11.30;;
76053;SDS011;64752;48.870;9.082;2023-04-30T05:50:45;13.02;;;10.55;;
76053;SDS011;64752;48.870;9.082;2023-04-30T05:53:11;13.15;;;10.93;;
76053;SDS011;64752;48.870;9.082;2023-04-30T05:55:37;13.68;;;11.30;;
76053;SDS011;64752;48.870;9.082;2023-04-30T05:58:03;18.45;;;12.05;;
76053;SDS011;64752;48.870;9.082;2023-04-30T06:00:28;13.57;;;10.63;;
76053;SDS011;64752;48.870;9.082;2023-04-30T06:02:54;11.95;;;10.18;;
76053;SDS011;64752;48.870;9.082;2023-04-30T06:05:19;12.32;;;10.38;;
76053;SDS011;64752;48.870;9.082;2023-04-30T06:07:44;12.05;;;10.40;;
76053;SDS011;64752;48.870;9.082;2023-04-30T06:10:10;13.63;;;10.57;;
76053;SDS011;64752;48.870;9.082;2023-04-30T06:12:36;13.43;;;11.10;;
76053;SDS011;64752;48.870;9.082;2023-04-30T06:15:03;13.65;;;10.68;;
76053;SDS011;64752;48.870;9.082;2023-04-30T06:17:29;13.90;;;10.40;;
76053;SDS011;64752;48.870;9.082;2023-04-30T06:19:54;12.18;;;9.95;;
76053;SDS011;64752;48.870;9.082;2023-04-30T06:22:22;11.82;;;10.20;;
76053;SDS011;64752;48.870;9.082;2023-04-30T06:24:47;11.32;;;9.90;;
76053;SDS011;64752;48.870;9.082;2023-04-30T06:27:13;11.00;;;9.55;;
76053;SDS011;64752;48.870;9.082;2023-04-30T06:29:38;11.80;;;9.07;;
76053;SDS011;64752;48.870;9.082;2023-04-30T06:32:04;15.20;;;9.40;;
76053;SDS011;64752;48.870;9.082;2023-04-30T06:34:29;10.37;;;8.87;;
76053;SDS011;64752;48.870;9.082;2023-04-30T06:36:55;12.57;;;9.97;;
76053;SDS011;64752;48.870;9.082;2023-04-30T06:39:20;11.60;;;9.70;;
76053;SDS011;64752;48.870;9.082;2023-04-30T06:41:46;11.67;;;9.43;;
76053;SDS011;64752;48.870;9.082;2023-04-30T06:44:11;11.63;;;9.07;;
76053;SDS011;64752;48.870;9.082;2023-04-30T06:46:37;13.07;;;9.07;;
76053;SDS011;64752;48.870;9.082;2023-04-30T06:49:02;9.67;;;8.47;;
76053;SDS011;64752;48.870;9.082;2023-04-30T06:51:28;10.37;;;8.40;;
76053;SDS011;64752;48.870;9.082;2023-04-30T06:53:53;11.27;;;8.17;;
76053;SDS011;64752;48.870;9.082;2023-04-30T06:56:18;12.27;;;8.40;;
76053;SDS011;64752;48.870;9.082;2023-04-30T06:58:46;13.32;;;8.60;;
76053;SDS011;64752;48.870;9.082;2023-04-30T07:01:11;12.40;;;8.27;;
76053;SDS011;64752;48.870;9.082;2023-04-30T07:03:36;10.73;;;8.43;;
76053;SDS011;64752;48.870;9.082;2023-04-30T07:06:02;10.93;;;8.27;;
76053;SDS011;64752;48.870;9.082;2023-04-30T07:08:27;11.47;;;8.40;;
76053;SDS011;64752;48.870;9.082;2023-04-30T07:10:53;11.33;;;8.40;;
76053;SDS011;64752;48.870;9.082;2023-04-30T07:13:18;10.90;;;8.30;;
76053;SDS011;64752;48.870;9.082;2023-04-30T07:15:43;11.93;;;7.80;;
76053;SDS011;64752;48.870;9.082;2023-04-30T07:18:09;14.07;;;8.17;;
76053;SDS011;64752;48.870;9.082;2023-04-30T07:20:34;10.40;;;8.30;;
76053;SDS011;64752;48.870;9.082;2023-04-30T07:23:00;13.10;;;8.37;;
76053;SDS011;64752;48.870;9.082;2023-04-30T07:25:25;11.50;;;8.07;;
76053;SDS011;64752;48.870;9.082;2023-04-30T07:27:51;9.97;;;7.60;;
76053;SDS011;64752;48.870;9.082;2023-04-30T07:30:17;9.82;;;7.93;;
76053;SDS011;64752;48.870;9.082;2023-04-30T07:32:42;10.90;;;7.70;;
76053;SDS011;64752;48.870;9.082;2023-04-30T07:35:08;9.60;;;7.53;;
76053;SDS011;64752;48.870;9.082;2023-04-30T07:37:33;9.33;;;7.23;;
76053;SDS011;64752;48.870;9.082;2023-04-30T07:39:59;9.63;;;7.37;;
76053;SDS011;64752;48.870;9.082;2023-04-30T07:42:24;10.80;;;6.97;;
76053;SDS011;64752;48.870;9.082;2023-04-30T07:44:50;9.43;;;6.60;;
76053;SDS011;64752;48.870;9.082;2023-04-30T07:47:16;8.82;;;7.13;;
76053;SDS011;64752;48.870;9.082;2023-04-30T07:49:44;9.57;;;7.03;;
76053;SDS011;64752;48.870;9.082;2023-04-30T07:52:10;9.77;;;6.72;;
76053;SDS011;64752;48.870;9.082;2023-04-30T07:54:38;9.05;;;5.70;;
76053;SDS011;64752;48.870;9.082;2023-04-30T07:57:04;9.43;;;6.15;;
76053;SDS011;64752;48.870;9.082;2023-04-30T07:59:30;9.63;;;6.53;;
76053;SDS011;64752;48.870;9.082;2023-04-30T08:01:56;9.47;;;6.83;;
76053;SDS011;64752;48.870;9.082;2023-04-30T08:04:22;8.80;;;5.70;;
76053;SDS011;64752;48.870;9.082;2023-04-30T08:06:47;7.67;;;6.00;;
76053;SDS011;64752;48.870;9.082;2023-04-30T08:09:13;8.13;;;5.60;;
76053;SDS011;64752;48.870;9.082;2023-04-30T08:11:41;6.88;;;5.35;;
76053;SDS011;64752;48.870;9.082;2023-04-30T08:14:07;7.67;;;5.83;;
76053;SDS011;64752;48.870;9.082;2023-04-30T08:16:32;8.47;;;5.20;;
76053;SDS011;64752;48.870;9.082;2023-04-30T08:18:57;6.50;;;5.00;;
76053;SDS011;64752;48.870;9.082;2023-04-30T08:21:23;7.27;;;5.10;;
76053;SDS011;64752;48.870;9.082;2023-04-30T08:23:49;6.97;;;5.03;;
76053;SDS011;64752;48.870;9.082;2023-04-30T08:26:15;6.72;;;5.05;;
76053;SDS011;64752;48.870;9.082;2023-04-30T08:28:40;6.30;;;4.30;;
76053;SDS011;64752;48.870;9.082;2023-04-30T08:31:06;8.07;;;4.37;;
76053;SDS011;64752;48.870;9.082;2023-04-30T08:33:32;5.77;;;4.27;;
76053;SDS011;64752;48.870;9.082;2023-04-30T08:35:57;6.80;;;4.40;;
76053;SDS011;64752;48.870;9.082;2023-04-30T08:38:23;6.28;;;4.55;;
76053;SDS011;64752;48.870;9.082;2023-04-30T08:40:51;6.57;;;4.40;;
76053;SDS011;64752;48.870;9.082;2023-04-30T08:43:25;6.45;;;4.05;;
76053;SDS011;64752;48.870;9.082;2023-04-30T08:48:17;8.73;;;3.60;;
76053;SDS011;64752;48.870;9.082;2023-04-30T08:50:45;6.57;;;3.97;;
76053;SDS011;64752;48.870;9.082;2023-04-30T08:53:10;4.27;;;3.50;;
76053;SDS011;64752;48.870;9.082;2023-04-30T08:55:39;5.28;;;3.50;;
76053;SDS011;64752;48.870;9.082;2023-04-30T08:58:05;5.15;;;3.05;;
76053;SDS011;64752;48.870;9.082;2023-04-30T09:00:32;5.43;;;3.72;;
76053;SDS011;64752;48.870;9.082;2023-04-30T09:02:59;4.53;;;3.03;;
76053;SDS011;64752;48.870;9.082;2023-04-30T09:05:25;5.40;;;3.07;;
76053;SDS011;64752;48.870;9.082;2023-04-30T09:07:50;4.13;;;3.07;;
76053;SDS011;64752;48.870;9.082;2023-04-30T09:10:19;3.80;;;2.70;;
76053;SDS011;64752;48.870;9.082;2023-04-30T09:13:03;4.47;;;3.00;;
76053;SDS011;64752;48.870;9.082;2023-04-30T09:15:34;4.43;;;2.88;;
76053;SDS011;64752;48.870;9.082;2023-04-30T09:18:14;5.10;;;3.55;;
76053;SDS011;64752;48.870;9.082;2023-04-30T09:23:57;6.15;;;3.25;;
76053;SDS011;64752;48.870;9.082;2023-04-30T09:26:34;3.90;;;2.85;;
76053;SDS011;64752;48.870;9.082;2023-04-30T09:29:01;4.03;;;2.77;;
76053;SDS011;64752;48.870;9.082;2023-04-30T09:31:31;3.53;;;2.72;;
76053;SDS011;64752;48.870;9.082;2023-04-30T09:33:57;4.28;;;2.60;;
76053;SDS011;64752;48.870;9.082;2023-04-30T09:36:23;3.80;;;2.67;;
76053;SDS011;64752;48.870;9.082;2023-04-30T09:38:48;3.60;;;2.20;;
76053;SDS011;64752;48.870;9.082;2023-04-30T09:43:50;4.45;;;2.92;;
76053;SDS011;64752;48.870;9.082;2023-04-30T09:46:17;5.43;;;2.70;;
76053;SDS011;64752;48.870;9.082;2023-04-30T09:48:44;4.82;;;2.63;;
76053;SDS011;64752;48.870;9.082;2023-04-30T09:51:09;4.37;;;2.93;;
76053;SDS011;64752;48.870;9.082;2023-04-30T09:53:39;5.03;;;3.07;;
76053;SDS011;64752;48.870;9.082;2023-04-30T09:56:07;5.18;;;3.42;;
76053;SDS011;64752;48.870;9.082;2023-04-30T09:58:36;4.85;;;3.20;;
76053;SDS011;64752;48.870;9.082;2023-04-30T10:01:04;6.65;;;3.22;;
76053;SDS011;64752;48.870;9.082;2023-04-30T10:03:35;4.82;;;2.50;;
76053;SDS011;64752;48.870;9.082;2023-04-30T10:06:03;4.10;;;2.60;;
76053;SDS011;64752;48.870;9.082;2023-04-30T10:08:35;3.70;;;2.85;;
76053;SDS011;64752;48.870;9.082;2023-04-30T10:11:07;4.17;;;2.77;;
76053;SDS011;64752;48.870;9.082;2023-04-30T10:13:34;3.83;;;2.38;;
76053;SDS011;64752;48.870;9.082;2023-04-30T10:16:06;6.25;;;2.92;;
76053;SDS011;64752;48.870;9.082;2023-04-30T10:18:42;3.33;;;2.20;;
76053;SDS011;64752;48.870;9.082;2023-04-30T10:21:13;3.92;;;2.70;;
76053;SDS011;64752;48.870;9.082;2023-04-30T10:23:41;3.65;;;2.58;;
76053;SDS011;64752;48.870;9.082;2023-04-30T10:26:09;3.10;;;2.28;;
76053;SDS011;64752;48.870;9.082;2023-04-30T10:28:36;4.20;;;2.20;;
76053;SDS011;64752;48.870;9.082;2023-04-30T10:31:02;4.27;;;2.50;;
76053;SDS011;64752;48.870;9.082;2023-04-30T10:36:39;4.50;;;2.70;;
76053;SDS011;64752;48.870;9.082;2023-04-30T10:39:08;5.03;;;2.60;;
76053;SDS011;64752;48.870;9.082;2023-04-30T10:44:01;4.32;;;2.58;;
76053;SDS011;64752;48.870;9.082;2023-04-30T10:46:29;5.93;;;3.00;;
76053;SDS011;64752;48.870;9.082;2023-04-30T10:48:54;3.33;;;2.60;;
76053;SDS011;64752;48.870;9.082;2023-04-30T10:51:20;5.47;;;2.50;;
76053;SDS011;64752;48.870;9.082;2023-04-30T10:53:49;5.37;;;3.17;;
76053;SDS011;64752;48.870;9.082;2023-04-30T10:56:31;4.28;;;2.40;;
76053;SDS011;64752;48.870;9.082;2023-04-30T10:58:58;2.97;;;2.22;;
76053;SDS011;64752;48.870;9.082;2023-04-30T11:01:27;3.45;;;2.42;;
76053;SDS011;64752;48.870;9.082;2023-04-30T11:04:06;3.70;;;2.53;;
76053;SDS011;64752;48.870;9.082;2023-04-30T11:06:54;4.47;;;2.53;;
76053;SDS011;64752;48.870;9.082;2023-04-30T11:09:33;2.92;;;2.40;;
76053;SDS011;64752;48.870;9.082;2023-04-30T11:12:10;3.65;;;2.38;;
76053;SDS011;64752;48.870;9.082;2023-04-30T11:14:42;3.90;;;2.45;;
76053;SDS011;64752;48.870;9.082;2023-04-30T11:17:10;3.78;;;2.38;;
76053;SDS011;64752;48.870;9.082;2023-04-30T11:19:50;3.88;;;2.47;;
76053;SDS011;64752;48.870;9.082;2023-04-30T11:22:21;3.70;;;2.50;;
76053;SDS011;64752;48.870;9.082;2023-04-30T11:27:33;6.22;;;2.75;;
76053;SDS011;64752;48.870;9.082;2023-04-30T11:30:00;3.03;;;2.60;;
76053;SDS011;64752;48.870;9.082;2023-04-30T11:32:33;4.45;;;3.00;;
76053;SDS011;64752;48.870;9.082;2023-04-30T11:35:01;4.50;;;2.78;;
76053;SDS011;64752;48.870;9.082;2023-04-30T11:37:35;4.03;;;2.50;;
76053;SDS011;64752;48.870;9.082;2023-04-30T11:40:03;4.10;;;2.80;;
76053;SDS011;64752;48.870;9.082;2023-04-30T11:42:36;4.35;;;2.67;;
76053;SDS011;64752;48.870;9.082;2023-04-30T11:45:06;3.25;;;2.42;;
76053;SDS011;64752;48.870;9.082;2023-04-30T11:50:05;4.05;;;3.08;;
76053;SDS011;64752;48.870;9.082;2023-04-30T11:52:34;7.40;;;2.90;;
76053;SDS011;64752;48.870;9.082;2023-04-30T11:55:03;8.77;;;2.60;;
76053;SDS011;64752;48.870;9.082;2023-04-30T11:57:34;5.30;;;2.80;;
76053;SDS011;64752;48.870;9.082;2023-04-30T12:00:14;3.30;;;2.42;;
76053;SDS011;64752;48.870;9.082;2023-04-30T12:02:45;5.55;;;2.15;;
76053;SDS011;64752;48.870;9.082;2023-04-30T12:05:16;4.10;;;2.83;;
76053;SDS011;64752;48.870;9.082;2023-04-30T12:07:51;6.93;;;2.65;;
76053;SDS011;64752;48.870;9.082;2023-04-30T12:10:20;5.63;;;3.20;;
76053;SDS011;64752;48.870;9.082;2023-04-30T12:12:46;6.68;;;2.83;;
76053;SDS011;64752;48.870;9.082;2023-04-30T12:17:44;4.53;;;3.13;;
76053;SDS011;64752;48.870;9.082;2023-04-30T12:20:11;4.03;;;2.60;;
76053;SDS011;64752;48.870;9.082;2023-04-30T12:22:39;4.38;;;3.03;;
76053;SDS011;64752;48.870;9.082;2023-04-30T12:25:06;4.65;;;2.78;;
76053;SDS011;64752;48.870;9.082;2023-04-30T12:27:34;4.63;;;2.95;;
76053;SDS011;64752;48.870;9.082;2023-04-30T12:30:09;4.18;;;2.75;;
76053;SDS011;64752;48.870;9.082;2023-04-30T12:35:08;3.28;;;2.40;;
76053;SDS011;64752;48.870;9.082;2023-04-30T12:37:45;4.03;;;2.60;;
76053;SDS011;64752;48.870;9.082;2023-04-30T12:40:25;7.57;;;3.00;;
76053;SDS011;64752;48.870;9.082;2023-04-30T12:42:58;3.13;;;2.38;;
76053;SDS011;64752;48.870;9.082;2023-04-30T12:48:17;4.55;;;2.90;;
76053;SDS011;64752;48.870;9.082;2023-04-30T12:50:47;4.82;;;2.50;;
76053;SDS011;64752;48.870;9.082;2023-04-30T12:53:45;4.90;;;2.58;;
76053;SDS011;64752;48.870;9.082;2023-04-30T12:58:46;3.22;;;2.50;;
76053;SDS011;64752;48.870;9.082;2023-04-30T13:01:18;3.85;;;2.35;;
76053;SDS011;64752;48.870;9.082;2023-04-30T13:03:45;3.55;;;2.20;;
76053;SDS011;64752;48.870;9.082;2023-04-30T13:06:11;3.20;;;2.20;;
76053;SDS011;64752;48.870;9.082;2023-04-30T13:08:36;2.73;;;2.20;;
76053;SDS011;64752;48.870;9.082;2023-04-30T13:11:02;4.97;;;2.73;;
76053;SDS011;64752;48.870;9.082;2023-04-30T13:13:28;3.25;;;2.38;;
76053;SDS011;64752;48.870;9.082;2023-04-30T13:15:55;3.70;;;2.53;;
76053;SDS011;64752;48.870;9.082;2023-04-30T13:18:20;5.40;;;3.10;;
76053;SDS011;64752;48.870;9.082;2023-04-30T13:20:46;5.67;;;2.63;;
76053;SDS011;64752;48.870;9.082;2023-04-30T13:23:12;3.13;;;2.37;;
76053;SDS011;64752;48.870;9.082;2023-04-30T13:25:38;5.27;;;2.40;;
76053;SDS011;64752;48.870;9.082;2023-04-30T13:28:04;3.92;;;2.72;;
76053;SDS011;64752;48.870;9.082;2023-04-30T13:30:30;4.03;;;2.40;;
76053;SDS011;64752;48.870;9.082;2023-04-30T13:32:55;4.43;;;2.60;;
76053;SDS011;64752;48.870;9.082;2023-04-30T13:35:21;4.87;;;2.60;;
76053;SDS011;64752;48.870;9.082;2023-04-30T13:37:46;4.83;;;2.50;;
76053;SDS011;64752;48.870;9.082;2023-04-30T13:40:13;4.82;;;2.65;;
76053;SDS011;64752;48.870;9.082;2023-04-30T13:42:40;4.88;;;2.30;;
76053;SDS011;64752;48.870;9.082;2023-04-30T13:45:07;2.47;;;2.03;;
76053;SDS011;64752;48.870;9.082;2023-04-30T13:47:33;6.63;;;2.30;;
76053;SDS011;64752;48.870;9.082;2023-04-30T13:49:59;3.22;;;2.35;;
76053;SDS011;64752;48.870;9.082;2023-04-30T13:52:25;4.67;;;2.70;;
76053;SDS011;64752;48.870;9.082;2023-04-30T13:54:50;5.63;;;2.43;;
76053;SDS011;64752;48.870;9.082;2023-04-30T13:57:16;5.47;;;2.80;;
76053;SDS011;64752;48.870;9.082;2023-04-30T13:59:42;3.20;;;2.20;;
76053;SDS011;64752;48.870;9.082;2023-04-30T14:02:07;4.43;;;2.70;;
76053;SDS011;64752;48.870;9.082;2023-04-30T14:04:33;2.60;;;1.97;;
76053;SDS011;64752;48.870;9.082;2023-04-30T14:06:58;3.27;;;2.20;;
76053;SDS011;64752;48.870;9.082;2023-04-30T14:09:25;3.80;;;2.75;;
76053;SDS011;64752;48.870;9.082;2023-04-30T14:11:51;4.30;;;2.40;;
76053;SDS011;64752;48.870;9.082;2023-04-30T14:14:16;4.67;;;1.97;;
76053;SDS011;64752;48.870;9.082;2023-04-30T14:16:42;2.30;;;1.80;;
76053;SDS011;64752;48.870;9.082;2023-04-30T14:19:08;4.43;;;2.00;;
76053;SDS011;64752;48.870;9.082;2023-04-30T14:21:34;3.67;;;2.15;;
76053;SDS011;64752;48.870;9.082;2023-04-30T14:24:00;6.10;;;2.20;;
76053;SDS011;64752;48.870;9.082;2023-04-30T14:26:25;4.77;;;3.20;;
76053;SDS011;64752;48.870;9.082;2023-04-30T14:28:50;4.20;;;2.40;;
76053;SDS011;64752;48.870;9.082;2023-04-30T14:31:16;3.73;;;2.20;;
76053;SDS011;64752;48.870;9.082;2023-04-30T14:33:41;3.93;;;2.40;;
76053;SDS011;64752;48.870;9.082;2023-04-30T14:36:07;4.77;;;2.17;;
76053;SDS011;64752;48.870;9.082;2023-04-30T14:38:33;4.53;;;3.30;;
76053;SDS011;64752;48.870;9.082;2023-04-30T14:40:58;2.90;;;2.60;;
76053;SDS011;64752;48.870;9.082;2023-04-30T14:43:24;4.00;;;2.40;;
76053;SDS011;64752;48.870;9.082;2023-04-30T14:45:50;3.93;;;2.53;;
76053;SDS011;64752;48.870;9.082;2023-04-30T14:48:16;3.45;;;2.30;;
76053;SDS011;64752;48.870;9.082;2023-04-30T14:50:42;3.13;;;2.33;;
76053;SDS011;64752;48.870;9.082;2023-04-30T14:53:08;3.20;;;2.60;;
76053;SDS011;64752;48.870;9.082;2023-04-30T14:55:35;4.40;;;2.40;;
76053;SDS011;64752;48.870;9.082;2023-04-30T14:58:01;4.93;;;2.50;;
76053;SDS011;64752;48.870;9.082;2023-04-30T15:00:26;4.30;;;2.23;;
76053;SDS011;64752;48.870;9.082;2023-04-30T15:02:53;5.38;;;2.22;;
76053;SDS011;64752;48.870;9.082;2023-04-30T15:05:18;2.27;;;2.00;;
76053;SDS011;64752;48.870;9.082;2023-04-30T15:07:43;3.67;;;2.20;;
76053;SDS011;64752;48.870;9.082;2023-04-30T15:10:09;4.77;;;2.80;;
76053;SDS011;64752;48.870;9.082;2023-04-30T15:12:34;3.03;;;2.10;;
76053;SDS011;64752;48.870;9.082;2023-04-30T15:15:03;3.50;;;2.10;;
76053;SDS011;64752;48.870;9.082;2023-04-30T15:17:29;3.17;;;2.33;;
76053;SDS011;64752;48.870;9.082;2023-04-30T15:19:56;4.13;;;2.13;;
76053;SDS011;64752;48.870;9.082;2023-04-30T15:22:24;9.52;;;6.03;;
76053;SDS011;64752;48.870;9.082;2023-04-30T15:24:50;6.07;;;3.43;;
76053;SDS011;64752;48.870;9.082;2023-04-30T15:27:16;3.10;;;2.20;;
76053;SDS011;64752;48.870;9.082;2023-04-30T15:29:41;3.37;;;2.23;;
76053;SDS011;64752;48.870;9.082;2023-04-30T15:32:08;3.15;;;2.10;;
76053;SDS011;64752;48.870;9.082;2023-04-30T15:34:33;5.40;;;2.17;;
76053;SDS011;64752;48.870;9.082;2023-04-30T15:37:00;3.63;;;2.27;;